Time;durP1;ratioP1;P1;durP2;ratioP2;P2;SDS_P1;SDS_P2;PMS_P1;PMS_P2;Temp;Humidity;BMP_temperature;BMP_pressure;BME280_temperature;BME280_humidity;BME280_pressure;Samples;Min_cycle;Max_cycle;Signal;HPM_P1;HPM_P2
2022/06/15 00:00:30;;;;;;;0.00;0.00;;;;;;;;;;5054542;28;20279;-63
2022/06/15 00:02:56;;;;;;;0.00;0.00;;;;;;;;;;5074562;28;20235;-63
2022/06/15 00:05:24;;;;;;;0.10;0.10;;;;;;;;;;5054433;28;20393;-62
2022/06/15 00:07:52;;;;;;;0.00;0.00;;;;;;;;;;5075157;28;20231;-62
2022/06/15 00:10:19;;;;;;;0.10;0.10;;;;;;;;;;5053374;28;20496;-62
2022/06/15 00:12:45;;;;;;;0.10;0.10;;;;;;;;;;5075730;28;20212;-65
2022/06/15 00:15:13;;;;;;;0.03;0.03;;;;;;;;;;5052716;28;20230;-65
2022/06/15 00:17:39;;;;;;;0.00;0.00;;;;;;;;;;5076640;28;20204;-64
2022/06/15 00:20:06;;;;;;;0.00;0.00;;;;;;;;;;5055083;28;20372;-63
2022/06/15 00:22:34;;;;;;;0.08;0.08;;;;;;;;;;5077667;28;20217;-63
2022/06/15 00:25:00;;;;;;;0.03;0.03;;;;;;;;;;5065509;28;20271;-62
2022/06/15 00:27:27;;;;;;;0.00;0.00;;;;;;;;;;5071016;28;20264;-63
2022/06/15 00:29:53;;;;;;;0.00;0.00;;;;;;;;;;5065253;28;20297;-63
2022/06/15 00:32:19;;;;;;;0.10;0.10;;;;;;;;;;5070665;28;20246;-63
2022/06/15 00:34:46;;;;;;;0.00;0.00;;;;;;;;;;5065287;28;20265;-62
2022/06/15 00:37:12;;;;;;;0.05;0.05;;;;;;;;;;5070619;28;20268;-63
2022/06/15 00:39:40;;;;;;;0.10;0.10;;;;;;;;;;5065462;28;20204;-63
2022/06/15 00:42:07;;;;;;;0.00;0.00;;;;;;;;;;5070287;28;20313;-65
2022/06/15 00:44:35;;;;;;;0.10;0.10;;;;;;;;;;5065003;28;20269;-62
2022/06/15 00:47:03;;;;;;;0.10;0.10;;;;;;;;;;5069920;28;20241;-63
2022/06/15 00:49:30;;;;;;;0.03;0.03;;;;;;;;;;5065060;28;20215;-62
2022/06/15 00:52:00;;;;;;;0.10;0.10;;;;;;;;;;5069054;28;20305;-61
2022/06/15 00:54:27;;;;;;;0.10;0.10;;;;;;;;;;5065838;28;20273;-63
2022/06/15 00:56:55;;;;;;;0.10;0.10;;;;;;;;;;5068857;28;20443;-62
2022/06/15 00:59:24;;;;;;;0.10;0.10;;;;;;;;;;5066294;28;20210;-63
2022/06/15 01:01:50;;;;;;;0.00;0.00;;;;;;;;;;5068350;28;20477;-63
2022/06/15 01:04:19;;;;;;;0.10;0.10;;;;;;;;;;5067029;28;20200;-63
2022/06/15 01:06:49;;;;;;;0.10;0.10;;;;;;;;;;5067507;28;20239;-62
2022/06/15 01:09:20;;;;;;;0.10;0.10;;;;;;;;;;5066764;28;20218;-63
2022/06/15 01:11:55;;;;;;;0.03;0.03;;;;;;;;;;5067517;28;20239;-62
2022/06/15 01:14:39;;;;;;;0.10;0.10;;;;;;;;;;5065872;28;20298;-62
2022/06/15 01:17:13;;;;;;;0.00;0.00;;;;;;;;;;5069932;28;20296;-62
2022/06/15 01:19:54;;;;;;;0.10;0.10;;;;;;;;;;5064734;28;20235;-62
2022/06/15 01:22:28;;;;;;;0.10;0.10;;;;;;;;;;5069765;28;20242;-62
2022/06/15 01:25:06;;;;;;;0.00;0.00;;;;;;;;;;5064398;28;20188;-61
2022/06/15 01:27:53;;;;;;;0.10;0.10;;;;;;;;;;5036250;28;20551;-62
2022/06/15 01:30:25;;;;;;;0.10;0.10;;;;;;;;;;5052597;28;20275;-62
2022/06/15 01:33:02;;;;;;;0.10;0.10;;;;;;;;;;5077009;28;20218;-63
2022/06/15 01:35:32;;;;;;;0.10;0.10;;;;;;;;;;5056675;28;20452;-63
2022/06/15 01:38:00;;;;;;;0.00;0.00;;;;;;;;;;5076236;28;20384;-62
2022/06/15 01:40:32;;;;;;;0.00;0.00;;;;;;;;;;5056658;28;20317;-63
2022/06/15 01:43:00;;;;;;;0.00;0.00;;;;;;;;;;5076133;28;20214;-63
2022/06/15 01:45:30;;;;;;;0.10;0.10;;;;;;;;;;5056520;28;20254;-63
2022/06/15 01:47:58;;;;;;;0.00;0.00;;;;;;;;;;5076303;28;20218;-63
2022/06/15 01:50:26;;;;;;;0.10;0.10;;;;;;;;;;5056595;28;20509;-63
2022/06/15 01:52:55;;;;;;;0.00;0.00;;;;;;;;;;5076597;28;20213;-62
2022/06/15 01:55:24;;;;;;;0.10;0.10;;;;;;;;;;5055805;28;20270;-62
2022/06/15 01:57:51;;;;;;;0.03;0.03;;;;;;;;;;5076920;28;20396;-63
2022/06/15 02:00:19;;;;;;;0.00;0.00;;;;;;;;;;5055672;28;20204;-63
2022/06/15 02:02:52;;;;;;;0.00;0.00;;;;;;;;;;5077267;28;20213;-63
2022/06/15 02:05:20;;;;;;;0.07;0.07;;;;;;;;;;5055554;28;20259;-63
2022/06/15 02:07:51;;;;;;;0.10;0.10;;;;;;;;;;5077275;28;20216;-63
2022/06/15 02:10:20;;;;;;;0.10;0.10;;;;;;;;;;5054949;28;20208;-62
2022/06/15 02:12:55;;;;;;;0.00;0.00;;;;;;;;;;5076675;28;20274;-62
2022/06/15 02:15:25;;;;;;;0.10;0.10;;;;;;;;;;5055295;28;20284;-63
2022/06/15 02:17:54;;;;;;;0.10;0.10;;;;;;;;;;5076354;28;20227;-63
2022/06/15 02:20:22;;;;;;;0.00;0.00;;;;;;;;;;5055267;28;20242;-62
2022/06/15 02:22:50;;;;;;;0.00;0.00;;;;;;;;;;5076407;28;20250;-63
2022/06/15 02:25:19;;;;;;;0.10;0.10;;;;;;;;;;5054673;28;20207;-63
2022/06/15 02:27:45;;;;;;;0.10;0.10;;;;;;;;;;5076987;28;20231;-64
2022/06/15 02:30:14;;;;;;;0.00;0.00;;;;;;;;;;5054158;28;20239;-63
2022/06/15 02:32:42;;;;;;;0.00;0.00;;;;;;;;;;5077471;28;20268;-63
2022/06/15 02:35:10;;;;;;;0.10;0.10;;;;;;;;;;5053585;28;20432;-63
2022/06/15 02:37:37;;;;;;;0.00;0.00;;;;;;;;;;5077857;28;20457;-63
2022/06/15 02:40:03;;;;;;;0.10;0.10;;;;;;;;;;5062892;28;20210;-63
2022/06/15 02:42:31;;;;;;;0.07;0.07;;;;;;;;;;5068141;28;20231;-63
2022/06/15 02:45:02;;;;;;;0.10;0.10;;;;;;;;;;5062920;28;20358;-63
2022/06/15 02:47:30;;;;;;;0.10;0.10;;;;;;;;;;5067589;28;20259;-63
2022/06/15 02:49:57;;;;;;;0.10;0.10;;;;;;;;;;5062838;28;20271;-62
2022/06/15 02:52:26;;;;;;;0.10;0.10;;;;;;;;;;5068104;28;20474;-63
2022/06/15 02:54:54;;;;;;;0.10;0.10;;;;;;;;;;5062657;28;20227;-62
2022/06/15 02:57:21;;;;;;;0.10;0.10;;;;;;;;;;5068226;28;20587;-63
2022/06/15 02:59:47;;;;;;;0.10;0.10;;;;;;;;;;5062703;28;20206;-63
2022/06/15 03:02:14;;;;;;;0.07;0.07;;;;;;;;;;5067846;28;20507;-64
2022/06/15 03:04:41;;;;;;;0.00;0.00;;;;;;;;;;5062949;28;20525;-63
2022/06/15 03:07:07;;;;;;;0.05;0.05;;;;;;;;;;5068072;28;20447;-62
2022/06/15 03:09:35;;;;;;;0.00;0.00;;;;;;;;;;5062527;28;20235;-63
2022/06/15 03:12:01;;;;;;;0.10;0.10;;;;;;;;;;5067439;28;20239;-62
2022/06/15 03:14:28;;;;;;;0.10;0.10;;;;;;;;;;5063244;28;20329;-63
2022/06/15 03:16:54;;;;;;;0.10;0.10;;;;;;;;;;5066618;28;20304;-63
2022/06/15 03:19:21;;;;;;;0.10;0.10;;;;;;;;;;5064206;28;20211;-63
2022/06/15 03:21:47;;;;;;;0.10;0.10;;;;;;;;;;5065540;28;20508;-63
2022/06/15 03:24:13;;;;;;;0.10;0.10;;;;;;;;;;5065000;28;20208;-62
2022/06/15 03:26:41;;;;;;;0.00;0.00;;;;;;;;;;5064629;28;20252;-61
2022/06/15 03:29:08;;;;;;;0.03;0.03;;;;;;;;;;5065322;28;20320;-64
2022/06/15 03:31:34;;;;;;;0.00;0.00;;;;;;;;;;5063754;28;20446;-62
2022/06/15 03:34:00;;;;;;;0.00;0.00;;;;;;;;;;5066536;28;20210;-63
2022/06/15 03:36:27;;;;;;;0.10;0.10;;;;;;;;;;5062853;28;20261;-61
2022/06/15 03:38:53;;;;;;;0.03;0.03;;;;;;;;;;5067484;28;20211;-64
2022/06/15 03:41:20;;;;;;;0.00;0.00;;;;;;;;;;5061484;28;20297;-63
2022/06/15 03:43:48;;;;;;;0.00;0.00;;;;;;;;;;5068043;28;20223;-63
2022/06/15 03:46:14;;;;;;;0.00;0.00;;;;;;;;;;5061054;28;20231;-63
2022/06/15 03:48:41;;;;;;;0.10;0.10;;;;;;;;;;5068978;28;20556;-62
2022/06/15 03:51:07;;;;;;;0.10;0.10;;;;;;;;;;5059824;28;20242;-63
2022/06/15 03:53:34;;;;;;;0.10;0.10;;;;;;;;;;5069269;28;20226;-62
2022/06/15 03:56:00;;;;;;;0.10;0.10;;;;;;;;;;5058634;28;20303;-63
2022/06/15 03:58:27;;;;;;;0.00;0.00;;;;;;;;;;5072595;28;20217;-63
2022/06/15 04:00:55;;;;;;;0.10;0.10;;;;;;;;;;5060632;28;20246;-64
2022/06/15 04:03:21;;;;;;;0.10;0.10;;;;;;;;;;5075747;28;20207;-63
2022/06/15 04:05:52;;;;;;;0.10;0.10;;;;;;;;;;5060643;28;20240;-63
2022/06/15 04:11:05;;;;;;;0.10;0.10;;;;;;;;;;5063186;28;20258;-63
2022/06/15 04:13:31;;;;;;;0.10;0.10;;;;;;;;;;5073763;28;20509;-63
2022/06/15 04:15:59;;;;;;;0.03;0.03;;;;;;;;;;5062430;28;20638;-61
2022/06/15 04:18:26;;;;;;;0.00;0.00;;;;;;;;;;5074021;28;20238;-63
2022/06/15 04:20:52;;;;;;;0.10;0.10;;;;;;;;;;5061302;28;20272;-63
2022/06/15 04:23:19;;;;;;;0.10;0.10;;;;;;;;;;5075310;28;20203;-64
2022/06/15 04:25:47;;;;;;;0.03;0.03;;;;;;;;;;5060946;28;20249;-63
2022/06/15 04:28:14;;;;;;;0.00;0.00;;;;;;;;;;5075762;28;20226;-66
2022/06/15 04:30:41;;;;;;;0.00;0.00;;;;;;;;;;5060207;28;20482;-63
2022/06/15 04:33:09;;;;;;;0.10;0.10;;;;;;;;;;5076214;28;20236;-63
2022/06/15 04:35:36;;;;;;;0.00;0.00;;;;;;;;;;5059088;28;20360;-62
2022/06/15 04:38:03;;;;;;;4.53;4.37;;;;;;;;;;5076734;28;20204;-62
2022/06/15 04:40:29;;;;;;;0.10;0.10;;;;;;;;;;5057990;28;20245;-62
2022/06/15 04:42:56;;;;;;;0.10;0.10;;;;;;;;;;5077558;28;20229;-62
2022/06/15 04:45:23;;;;;;;0.00;0.00;;;;;;;;;;5057617;28;20203;-62
2022/06/15 04:47:49;;;;;;;0.10;0.10;;;;;;;;;;5078026;28;20204;-62
2022/06/15 04:50:17;;;;;;;0.10;0.10;;;;;;;;;;5056002;28;20239;-63
2022/06/15 04:52:44;;;;;;;0.00;0.00;;;;;;;;;;5078807;28;20275;-62
2022/06/15 04:55:12;;;;;;;0.10;0.10;;;;;;;;;;5055518;28;20235;-62
2022/06/15 04:57:39;;;;;;;0.10;0.10;;;;;;;;;;5079003;28;20308;-62
2022/06/15 05:00:06;;;;;;;0.00;0.00;;;;;;;;;;5064430;28;20232;-69
2022/06/15 05:02:33;;;;;;;0.05;0.05;;;;;;;;;;5079983;28;20534;-63
2022/06/15 05:04:59;;;;;;;0.00;0.00;;;;;;;;;;5064824;28;20272;-63
2022/06/15 05:07:27;;;;;;;0.10;0.10;;;;;;;;;;5070277;28;20339;-63
2022/06/15 05:09:53;;;;;;;0.00;0.00;;;;;;;;;;5064000;28;20211;-63
2022/06/15 05:12:20;;;;;;;0.10;0.10;;;;;;;;;;5069919;28;20268;-63
2022/06/15 05:14:47;;;;;;;0.10;0.10;;;;;;;;;;5064719;28;20290;-62
2022/06/15 05:17:14;;;;;;;0.10;0.10;;;;;;;;;;5069919;28;20243;-62
2022/06/15 05:19:40;;;;;;;0.00;0.00;;;;;;;;;;5064389;28;20208;-63
2022/06/15 05:22:06;;;;;;;0.10;0.10;;;;;;;;;;5069425;28;20298;-63
2022/06/15 05:24:34;;;;;;;0.10;0.10;;;;;;;;;;5064249;28;20231;-63
2022/06/15 05:27:01;;;;;;;0.00;0.00;;;;;;;;;;5068957;28;20238;-62
2022/06/15 05:29:28;;;;;;;0.05;0.05;;;;;;;;;;5065293;28;20224;-63
2022/06/15 05:31:54;;;;;;;0.10;0.10;;;;;;;;;;5068000;28;20355;-62
2022/06/15 05:34:20;;;;;;;0.10;0.10;;;;;;;;;;5065932;28;20369;-63
2022/06/15 05:36:47;;;;;;;0.00;0.00;;;;;;;;;;5067247;28;20258;-63
2022/06/15 05:39:13;;;;;;;0.10;0.10;;;;;;;;;;5066805;28;20206;-62
2022/06/15 05:41:41;;;;;;;0.00;0.00;;;;;;;;;;5066140;28;20239;-63
2022/06/15 05:44:08;;;;;;;0.05;0.05;;;;;;;;;;5067338;28;20215;-62
2022/06/15 05:46:35;;;;;;;0.00;0.00;;;;;;;;;;5065578;28;20240;-62
2022/06/15 05:49:02;;;;;;;0.03;0.03;;;;;;;;;;5068086;28;20441;-63
2022/06/15 05:51:29;;;;;;;0.00;0.00;;;;;;;;;;5064367;28;20332;-62
2022/06/15 05:53:55;;;;;;;0.10;0.10;;;;;;;;;;5068676;28;20296;-62
2022/06/15 05:56:21;;;;;;;0.00;0.00;;;;;;;;;;5063347;28;20244;-63
2022/06/15 05:58:49;;;;;;;0.00;0.00;;;;;;;;;;5069651;28;20275;-64
2022/06/15 06:01:19;;;;;;;0.03;0.03;;;;;;;;;;5062302;28;20410;-63
2022/06/15 06:03:46;;;;;;;0.03;0.03;;;;;;;;;;5070344;28;20324;-64
2022/06/15 06:06:12;;;;;;;0.10;0.10;;;;;;;;;;5062349;28;20291;-63
2022/06/15 06:08:38;;;;;;;0.10;0.10;;;;;;;;;;5070578;28;20212;-63
2022/06/15 06:11:05;;;;;;;0.00;0.00;;;;;;;;;;5061317;28;20242;-63
2022/06/15 06:13:31;;;;;;;0.03;0.03;;;;;;;;;;5071906;28;20235;-65
2022/06/15 06:15:59;;;;;;;0.00;0.00;;;;;;;;;;5059725;28;20326;-63
2022/06/15 06:18:25;;;;;;;0.00;0.00;;;;;;;;;;5072478;28;20210;-62
2022/06/15 06:20:52;;;;;;;0.00;0.00;;;;;;;;;;5059205;28;20302;-63
2022/06/15 06:23:19;;;;;;;0.10;0.10;;;;;;;;;;5072984;28;20390;-63
2022/06/15 06:25:47;;;;;;;0.10;0.10;;;;;;;;;;5058684;28;20258;-64
2022/06/15 06:28:20;;;;;;;0.10;0.10;;;;;;;;;;5072987;28;20224;-62
2022/06/15 06:30:47;;;;;;;0.00;0.00;;;;;;;;;;5058586;28;20628;-63
2022/06/15 06:33:14;;;;;;;0.10;0.10;;;;;;;;;;5073400;28;20213;-63
2022/06/15 06:35:41;;;;;;;0.10;0.10;;;;;;;;;;5057668;28;20498;-63
2022/06/15 06:38:07;;;;;;;0.10;0.10;;;;;;;;;;5074011;28;20220;-61
2022/06/15 06:40:34;;;;;;;0.10;0.10;;;;;;;;;;5056403;28;20309;-63
2022/06/15 06:43:00;;;;;;;0.08;0.08;;;;;;;;;;5075064;28;20215;-64
2022/06/15 06:45:27;;;;;;;0.10;0.10;;;;;;;;;;5056011;28;20419;-62
2022/06/15 06:47:53;;;;;;;0.10;0.10;;;;;;;;;;5075392;28;20204;-63
2022/06/15 06:50:22;;;;;;;0.03;0.03;;;;;;;;;;5054713;28;20545;-62
2022/06/15 06:52:49;;;;;;;0.00;0.00;;;;;;;;;;5075788;28;20242;-62
2022/06/15 06:55:15;;;;;;;0.10;0.10;;;;;;;;;;5053794;28;20266;-62
2022/06/15 06:57:42;;;;;;;0.10;0.10;;;;;;;;;;5077143;28;20309;-63
2022/06/15 07:00:09;;;;;;;0.10;0.10;;;;;;;;;;5052883;28;20213;-64
2022/06/15 07:02:35;;;;;;;0.05;0.05;;;;;;;;;;5077794;28;20204;-63
2022/06/15 07:05:02;;;;;;;0.00;0.00;;;;;;;;;;5062546;28;20232;-62
2022/06/15 07:07:32;;;;;;;0.03;0.03;;;;;;;;;;5067855;28;20244;-63
2022/06/15 07:09:59;;;;;;;0.10;0.10;;;;;;;;;;5062822;28;20211;-64
2022/06/15 07:12:25;;;;;;;0.10;0.10;;;;;;;;;;5067867;28;20416;-62
2022/06/15 07:14:52;;;;;;;0.00;0.00;;;;;;;;;;5062886;28;20387;-62
2022/06/15 07:17:18;;;;;;;0.00;0.00;;;;;;;;;;5067890;28;20306;-62
2022/06/15 07:19:45;;;;;;;0.00;0.00;;;;;;;;;;5062633;28;20258;-63
2022/06/15 07:22:11;;;;;;;0.10;0.10;;;;;;;;;;5067509;28;20240;-62
2022/06/15 07:24:39;;;;;;;0.00;0.00;;;;;;;;;;5062348;28;20285;-62
2022/06/15 07:27:05;;;;;;;0.03;0.03;;;;;;;;;;5067729;28;20523;-63
2022/06/15 07:29:32;;;;;;;0.00;0.00;;;;;;;;;;5062325;28;20212;-63
2022/06/15 07:31:58;;;;;;;0.00;0.00;;;;;;;;;;5066527;28;20311;-62
2022/06/15 07:34:25;;;;;;;0.00;0.00;;;;;;;;;;5066789;28;20272;-63
2022/06/15 07:36:51;;;;;;;0.00;0.00;;;;;;;;;;5069869;28;20588;-63
2022/06/15 07:39:18;;;;;;;0.10;0.10;;;;;;;;;;5068396;28;20206;-63
2022/06/15 07:41:46;;;;;;;0.08;0.08;;;;;;;;;;5069120;28;20255;-62
2022/06/15 07:44:13;;;;;;;0.10;0.10;;;;;;;;;;5068995;28;20213;-63
2022/06/15 07:46:40;;;;;;;0.03;0.03;;;;;;;;;;5068365;28;20244;-61
2022/06/15 07:51:52;;;;;;;0.05;0.05;;;;;;;;;;5069673;28;20301;-62
2022/06/15 07:54:19;;;;;;;0.03;0.03;;;;;;;;;;5068104;28;20198;-61
2022/06/15 07:56:47;;;;;;;0.00;0.00;;;;;;;;;;5068741;28;20331;-62
2022/06/15 07:59:14;;;;;;;0.10;0.10;;;;;;;;;;5068194;28;20211;-62
2022/06/15 08:01:40;;;;;;;0.03;0.03;;;;;;;;;;5068096;28;20445;-62
2022/06/15 08:04:07;;;;;;;0.10;0.10;;;;;;;;;;5069608;28;20234;-62
2022/06/15 08:06:37;;;;;;;0.00;0.00;;;;;;;;;;5067108;28;20248;-62
2022/06/15 08:09:04;;;;;;;0.10;0.10;;;;;;;;;;5069413;28;20227;-64
2022/06/15 08:11:31;;;;;;;0.00;0.00;;;;;;;;;;5066575;28;20260;-63
2022/06/15 08:13:59;;;;;;;0.10;0.10;;;;;;;;;;5070523;28;20248;-62
2022/06/15 08:16:26;;;;;;;0.00;0.00;;;;;;;;;;5065779;28;20313;-64
2022/06/15 08:18:54;;;;;;;0.00;0.00;;;;;;;;;;5070952;28;20217;-62
2022/06/15 08:21:22;;;;;;;0.10;0.10;;;;;;;;;;5064852;28;20248;-63
2022/06/15 08:23:50;;;;;;;0.00;0.00;;;;;;;;;;5071313;28;20225;-62
2022/06/15 08:26:18;;;;;;;0.03;0.03;;;;;;;;;;5064722;28;20330;-64
2022/06/15 08:28:46;;;;;;;0.08;0.08;;;;;;;;;;5071617;28;20520;-64
2022/06/15 08:31:14;;;;;;;0.03;0.03;;;;;;;;;;5063587;28;20261;-63
2022/06/15 08:33:40;;;;;;;0.00;0.00;;;;;;;;;;5072544;28;20219;-62
2022/06/15 08:36:09;;;;;;;0.00;0.00;;;;;;;;;;5063432;28;20585;-63
2022/06/15 08:38:35;;;;;;;0.10;0.10;;;;;;;;;;5072814;28;20207;-62
2022/06/15 08:41:03;;;;;;;0.00;0.00;;;;;;;;;;5062793;28;20293;-62
2022/06/15 08:43:36;;;;;;;0.10;0.10;;;;;;;;;;5072825;28;20208;-63
2022/06/15 08:46:06;;;;;;;0.10;0.10;;;;;;;;;;5061981;28;20246;-62
2022/06/15 08:48:42;;;;;;;0.00;0.00;;;;;;;;;;5073008;28;20422;-63
2022/06/15 08:51:11;;;;;;;0.00;0.00;;;;;;;;;;5063053;28;20256;-63
2022/06/15 08:53:42;;;;;;;0.00;0.00;;;;;;;;;;5072369;28;20243;-63
2022/06/15 08:56:10;;;;;;;0.00;0.00;;;;;;;;;;5062953;28;20579;-62
2022/06/15 08:58:42;;;;;;;0.00;0.00;;;;;;;;;;5072395;28;20250;-64
2022/06/15 09:01:13;;;;;;;0.10;0.10;;;;;;;;;;5063002;28;20249;-62
2022/06/15 09:03:44;;;;;;;0.05;0.05;;;;;;;;;;5071876;28;20204;-63
2022/06/15 09:06:16;;;;;;;0.00;0.00;;;;;;;;;;5062985;28;20263;-63
2022/06/15 09:08:56;;;;;;;0.00;0.00;;;;;;;;;;5071455;28;20276;-63
2022/06/15 09:11:29;;;;;;;0.00;0.00;;;;;;;;;;5064278;28;20587;-63
2022/06/15 09:14:02;;;;;;;0.00;0.00;;;;;;;;;;5069192;28;20214;-63
2022/06/15 09:16:34;;;;;;;0.08;0.08;;;;;;;;;;5065113;28;20306;-62
2022/06/15 09:19:07;;;;;;;0.10;0.10;;;;;;;;;;5068978;28;20274;-62
2022/06/15 09:21:35;;;;;;;0.03;0.03;;;;;;;;;;5065580;28;20240;-65
2022/06/15 09:24:03;;;;;;;0.00;0.00;;;;;;;;;;5068659;28;20216;-62
2022/06/15 09:26:31;;;;;;;0.00;0.00;;;;;;;;;;5065228;28;20236;-63
2022/06/15 09:29:00;;;;;;;0.00;0.00;;;;;;;;;;5068540;28;20477;-63
2022/06/15 09:31:28;;;;;;;0.10;0.10;;;;;;;;;;5064184;28;20310;-63
2022/06/15 09:33:58;;;;;;;0.00;0.00;;;;;;;;;;5069125;28;20205;-62
2022/06/15 09:36:27;;;;;;;0.10;0.10;;;;;;;;;;5063945;28;20233;-63
2022/06/15 09:38:54;;;;;;;0.03;0.03;;;;;;;;;;5069118;28;20215;-63
2022/06/15 09:41:22;;;;;;;0.00;0.00;;;;;;;;;;5063477;28;20548;-62
2022/06/15 09:43:55;;;;;;;0.00;0.00;;;;;;;;;;5069533;28;20395;-63
2022/06/15 09:46:25;;;;;;;0.00;0.00;;;;;;;;;;5063894;28;20239;-63
2022/06/15 09:48:59;;;;;;;0.00;0.00;;;;;;;;;;5069286;28;20197;-63
2022/06/15 09:51:32;;;;;;;0.00;0.00;;;;;;;;;;5063910;28;20312;-63
2022/06/15 09:54:01;;;;;;;0.00;0.00;;;;;;;;;;5068114;28;20220;-64
2022/06/15 09:56:27;;;;;;;0.00;0.00;;;;;;;;;;5063604;28;20234;-63
2022/06/15 09:58:55;;;;;;;0.10;0.10;;;;;;;;;;5068809;28;20276;-63
2022/06/15 10:01:23;;;;;;;0.00;0.00;;;;;;;;;;5063327;28;20447;-63
2022/06/15 10:03:51;;;;;;;0.00;0.00;;;;;;;;;;5069306;28;20211;-64
2022/06/15 10:06:21;;;;;;;0.00;0.00;;;;;;;;;;5062806;28;20469;-63
2022/06/15 10:08:49;;;;;;;0.00;0.00;;;;;;;;;;5069295;28;20277;-63
2022/06/15 10:11:17;;;;;;;0.00;0.00;;;;;;;;;;5062172;28;20240;-64
2022/06/15 10:13:45;;;;;;;0.00;0.00;;;;;;;;;;5069531;28;20207;-65
2022/06/15 10:16:23;;;;;;;0.00;0.00;;;;;;;;;;5061465;28;20244;-64
2022/06/15 10:18:51;;;;;;;0.00;0.00;;;;;;;;;;5068681;28;20232;-64
2022/06/15 10:21:19;;;;;;;0.00;0.00;;;;;;;;;;5062167;28;20241;-63
2022/06/15 10:23:54;;;;;;;0.08;0.08;;;;;;;;;;5069250;28;20206;-63
2022/06/15 10:26:25;;;;;;;0.00;0.00;;;;;;;;;;5062332;28;20246;-64
2022/06/15 10:28:52;;;;;;;0.00;0.00;;;;;;;;;;5068303;28;20469;-65
2022/06/15 10:31:24;;;;;;;0.00;0.00;;;;;;;;;;5062353;28;20466;-65
2022/06/15 10:33:51;;;;;;;0.00;0.00;;;;;;;;;;5068122;28;20204;-64
2022/06/15 10:36:21;;;;;;;0.10;0.10;;;;;;;;;;5062201;28;20308;-64
2022/06/15 10:38:49;;;;;;;0.10;0.10;;;;;;;;;;5068849;28;20222;-64
2022/06/15 10:44:01;;;;;;;0.00;0.00;;;;;;;;;;5066668;28;20217;-66
2022/06/15 10:46:27;;;;;;;0.10;0.10;;;;;;;;;;5063331;28;20238;-65
2022/06/15 10:48:57;;;;;;;0.00;0.00;;;;;;;;;;5067871;28;20279;-64
2022/06/15 10:51:29;;;;;;;0.00;0.00;;;;;;;;;;5062228;28;20247;-65
2022/06/15 10:54:11;;;;;;;0.00;0.00;;;;;;;;;;5067599;28;20208;-63
2022/06/15 11:02:14;;;;;;;0.00;0.00;;;;;;;;;;5067488;28;20257;-67
2022/06/15 11:04:51;;;;;;;0.00;0.00;;;;;;;;;;5062301;28;20392;-67
2022/06/15 11:07:26;;;;;;;0.00;0.00;;;;;;;;;;5066903;28;20261;-68
2022/06/15 11:10:02;;;;;;;0.00;0.00;;;;;;;;;;5062703;28;20486;-68
2022/06/15 11:12:35;;;;;;;0.00;0.00;;;;;;;;;;5067513;28;20239;-69
2022/06/15 11:15:03;;;;;;;0.00;0.00;;;;;;;;;;5062347;28;20248;-69
2022/06/15 11:20:31;;;;;;;0.00;0.00;;;;;;;;;;5053006;28;20248;-68
2022/06/15 11:23:02;;;;;;;0.00;0.00;;;;;;;;;;5074436;28;20241;-68
2022/06/15 11:25:33;;;;;;;0.00;0.00;;;;;;;;;;5054944;28;20243;-68
2022/06/15 11:28:03;;;;;;;0.00;0.00;;;;;;;;;;5073950;28;20224;-67
2022/06/15 11:30:32;;;;;;;0.00;0.00;;;;;;;;;;5054925;28;20254;-68
2022/06/15 11:33:01;;;;;;;0.00;0.00;;;;;;;;;;5074080;28;20212;-67
2022/06/15 11:35:31;;;;;;;0.00;0.00;;;;;;;;;;5055008;28;20243;-67
2022/06/15 11:38:02;;;;;;;0.00;0.00;;;;;;;;;;5073832;28;20224;-67
2022/06/15 11:40:35;;;;;;;0.00;0.00;;;;;;;;;;5055115;28;20566;-68
2022/06/15 11:43:03;;;;;;;0.00;0.00;;;;;;;;;;5073586;28;20204;-67
2022/06/15 11:45:32;;;;;;;0.00;0.00;;;;;;;;;;5055160;28;20239;-67
2022/06/15 11:48:04;;;;;;;0.00;0.00;;;;;;;;;;5073736;28;20226;-68
2022/06/15 11:50:35;;;;;;;0.00;0.00;;;;;;;;;;5055194;28;20259;-68
2022/06/15 11:53:06;;;;;;;0.00;0.00;;;;;;;;;;5073357;28;20227;-68
2022/06/15 11:55:37;;;;;;;0.00;0.00;;;;;;;;;;5055554;28;20239;-67
2022/06/15 11:58:17;;;;;;;0.00;0.00;;;;;;;;;;5073086;28;20224;-66
2022/06/15 12:00:46;;;;;;;0.00;0.00;;;;;;;;;;5056032;28;20239;-67
2022/06/15 12:03:25;;;;;;;0.00;0.00;;;;;;;;;;5072329;28;20386;-67
2022/06/15 12:05:52;;;;;;;0.00;0.00;;;;;;;;;;5057828;28;20600;-68
2022/06/15 12:08:27;;;;;;;0.00;0.00;;;;;;;;;;5071168;28;20196;-67
2022/06/15 12:10:56;;;;;;;0.00;0.00;;;;;;;;;;5058057;28;20518;-67
2022/06/15 12:13:29;;;;;;;0.00;0.00;;;;;;;;;;5070633;28;20274;-68
2022/06/15 12:15:59;;;;;;;0.00;0.00;;;;;;;;;;5058353;28;20314;-67
2022/06/15 12:18:32;;;;;;;0.00;0.00;;;;;;;;;;5070643;28;20232;-68
2022/06/15 12:21:00;;;;;;;0.00;0.00;;;;;;;;;;5061939;28;20254;-67
2022/06/15 12:23:33;;;;;;;0.00;0.00;;;;;;;;;;5073769;28;20275;-68
2022/06/15 12:26:02;;;;;;;0.00;0.00;;;;;;;;;;5062299;28;20586;-68
2022/06/15 12:28:33;;;;;;;0.10;0.10;;;;;;;;;;5073429;28;20224;-67
2022/06/15 12:31:03;;;;;;;0.00;0.00;;;;;;;;;;5062062;28;20265;-68
2022/06/15 12:33:35;;;;;;;0.00;0.00;;;;;;;;;;5073138;28;20211;-68
2022/06/15 12:36:03;;;;;;;0.00;0.00;;;;;;;;;;5062245;28;20288;-67
2022/06/15 12:38:35;;;;;;;0.00;0.00;;;;;;;;;;5073071;28;20294;-68
2022/06/15 12:41:05;;;;;;;0.00;0.00;;;;;;;;;;5062042;28;20240;-68
2022/06/15 12:43:35;;;;;;;0.00;0.00;;;;;;;;;;5072945;28;20200;-67
2022/06/15 12:46:05;;;;;;;0.00;0.00;;;;;;;;;;5062381;28;20239;-69
2022/06/15 12:48:35;;;;;;;0.00;0.00;;;;;;;;;;5072837;28;20518;-67
2022/06/15 12:51:04;;;;;;;0.00;0.00;;;;;;;;;;5061873;28;20327;-67
2022/06/15 12:53:36;;;;;;;0.00;0.00;;;;;;;;;;5072554;28;20508;-67
2022/06/15 12:56:09;;;;;;;0.00;0.00;;;;;;;;;;5062120;28;20302;-67
2022/06/15 12:58:45;;;;;;;0.08;0.08;;;;;;;;;;5072120;28;20296;-67
2022/06/15 13:01:12;;;;;;;0.00;0.00;;;;;;;;;;5063017;28;20488;-68
2022/06/15 13:03:50;;;;;;;0.00;0.00;;;;;;;;;;5071669;28;20204;-68
2022/06/15 13:06:20;;;;;;;0.00;0.00;;;;;;;;;;5063790;28;20239;-68
2022/06/15 13:08:47;;;;;;;0.00;0.00;;;;;;;;;;5070615;28;20206;-67
2022/06/15 13:11:15;;;;;;;0.00;0.00;;;;;;;;;;5063246;28;20235;-67
2022/06/15 13:13:45;;;;;;;0.00;0.00;;;;;;;;;;5071075;28;20437;-67
2022/06/15 13:16:13;;;;;;;0.00;0.00;;;;;;;;;;5062670;28;20259;-67
2022/06/15 13:18:46;;;;;;;0.00;0.00;;;;;;;;;;5070451;28;20254;-67
2022/06/15 13:21:13;;;;;;;0.00;0.00;;;;;;;;;;5062481;28;20239;-67
2022/06/15 13:23:40;;;;;;;0.00;0.00;;;;;;;;;;5070828;28;20235;-67
2022/06/15 13:26:09;;;;;;;0.00;0.00;;;;;;;;;;5061962;28;20267;-66
2022/06/15 13:28:37;;;;;;;0.00;0.00;;;;;;;;;;5071607;28;20236;-67
2022/06/15 13:31:06;;;;;;;0.00;0.00;;;;;;;;;;5060548;28;20493;-68
2022/06/15 13:33:52;;;;;;;0.00;0.00;;;;;;;;;;5071652;28;20235;-68
2022/06/15 13:36:19;;;;;;;0.00;0.00;;;;;;;;;;5063466;28;20243;-67
2022/06/15 13:38:46;;;;;;;0.00;0.00;;;;;;;;;;5069913;28;20228;-67
2022/06/15 13:41:17;;;;;;;0.00;0.00;;;;;;;;;;5062280;28;20239;-68
2022/06/15 13:44:03;;;;;;;0.00;0.00;;;;;;;;;;5070181;28;20203;-68
2022/06/15 13:46:32;;;;;;;0.00;0.00;;;;;;;;;;5064491;28;20242;-68
2022/06/15 13:49:00;;;;;;;0.00;0.00;;;;;;;;;;5068142;28;20499;-68
2022/06/15 13:51:29;;;;;;;0.00;0.00;;;;;;;;;;5063687;28;20246;-67
2022/06/15 13:54:00;;;;;;;0.00;0.00;;;;;;;;;;5068434;28;20204;-68
2022/06/15 13:56:30;;;;;;;0.00;0.00;;;;;;;;;;5063584;28;20617;-67
2022/06/15 13:59:08;;;;;;;0.00;0.00;;;;;;;;;;5067987;28;20295;-67
2022/06/15 14:01:42;;;;;;;0.00;0.00;;;;;;;;;;5064513;28;20309;-67
2022/06/15 14:04:26;;;;;;;0.00;0.00;;;;;;;;;;5066652;28;20208;-67
2022/06/15 14:07:07;;;;;;;0.00;0.00;;;;;;;;;;5059991;28;20239;-68
2022/06/15 14:09:40;;;;;;;0.00;0.00;;;;;;;;;;5059655;28;20275;-67
2022/06/15 14:12:16;;;;;;;0.00;0.00;;;;;;;;;;5068383;28;20302;-68
2022/06/15 14:14:49;;;;;;;0.00;0.00;;;;;;;;;;5063542;28;20206;-67
2022/06/15 14:17:30;;;;;;;0.00;0.00;;;;;;;;;;5068170;28;20254;-69
2022/06/15 14:20:00;;;;;;;0.00;0.00;;;;;;;;;;5060500;28;20203;-69
2022/06/15 14:22:26;;;;;;;0.00;0.00;;;;;;;;;;5068267;28;20278;-67
2022/06/15 14:25:01;;;;;;;0.00;0.00;;;;;;;;;;5063188;28;20563;-67
2022/06/15 14:27:28;;;;;;;0.00;0.00;;;;;;;;;;5068231;28;20269;-66
2022/06/15 14:29:55;;;;;;;0.00;0.00;;;;;;;;;;5063088;28;20500;-67
2022/06/15 14:32:24;;;;;;;0.00;0.00;;;;;;;;;;5067980;28;20246;-68
2022/06/15 14:34:51;;;;;;;0.00;0.00;;;;;;;;;;5062721;28;20406;-68
2022/06/15 14:37:20;;;;;;;0.00;0.00;;;;;;;;;;5068044;28;20255;-67
2022/06/15 14:39:47;;;;;;;0.00;0.00;;;;;;;;;;5062674;28;20211;-67
2022/06/15 14:42:17;;;;;;;0.00;0.00;;;;;;;;;;5067694;28;20295;-67
2022/06/15 14:44:43;;;;;;;0.00;0.00;;;;;;;;;;5062560;28;20211;-67
2022/06/15 14:47:12;;;;;;;0.00;0.00;;;;;;;;;;5067857;28;20301;-67
2022/06/15 14:49:41;;;;;;;0.00;0.00;;;;;;;;;;5062356;28;20238;-67
2022/06/15 14:52:20;;;;;;;0.00;0.00;;;;;;;;;;5067410;28;20314;-68
2022/06/15 14:54:50;;;;;;;0.00;0.00;;;;;;;;;;5062252;28;20202;-68
2022/06/15 14:57:18;;;;;;;0.00;0.00;;;;;;;;;;5067704;28;20343;-68
2022/06/15 14:59:46;;;;;;;0.00;0.00;;;;;;;;;;5062112;28;20238;-68
2022/06/15 15:02:13;;;;;;;0.00;0.00;;;;;;;;;;5067381;28;20567;-67
2022/06/15 15:04:41;;;;;;;0.00;0.00;;;;;;;;;;5062486;28;20204;-67
2022/06/15 15:09:50;;;;;;;0.00;0.00;;;;;;;;;;5061339;28;20271;-67
2022/06/15 15:12:20;;;;;;;0.00;0.00;;;;;;;;;;5067343;28;20544;-67